createdAt,value
2019-05-23T00:01:35.496Z,98973.91
2019-05-23T00:03:52.653Z,98972.98
2019-05-23T00:06:06.623Z,98984.38
2019-05-23T00:08:13.720Z,98981.59
2019-05-23T00:10:25.152Z,98983.27
2019-05-23T00:12:47.110Z,98982.61
2019-05-23T00:14:55.395Z,98975.16
2019-05-23T00:17:01.919Z,98976.47
2019-05-23T00:19:06.436Z,98976.25
2019-05-23T00:21:10.248Z,98973.80
2019-05-23T00:23:16.743Z,98969.75
2019-05-23T00:25:22.217Z,98966.50
2019-05-23T00:27:26.256Z,98966.80
2019-05-23T00:29:31.297Z,98971.52
2019-05-23T00:31:45.183Z,98967.22
2019-05-23T00:33:50.461Z,98969.52
2019-05-23T00:35:54.977Z,98964.95
2019-05-23T00:37:58.917Z,98965.53
2019-05-23T00:40:04.618Z,98967.77
2019-05-23T00:42:10.154Z,98970.82
2019-05-23T00:44:14.047Z,98964.30
2019-05-23T00:46:18.983Z,98964.34
2019-05-23T00:48:24.931Z,98972.53
2019-05-23T00:50:29.728Z,98977.41
2019-05-23T00:52:33.857Z,98969.45
2019-05-23T00:54:40.190Z,98972.44
2019-05-23T00:56:44.397Z,98966.68
2019-05-23T00:58:48.762Z,98971.03
2019-05-23T01:00:54.058Z,98971.37
2019-05-23T01:02:58.507Z,98974.42
2019-05-23T01:05:02.722Z,98972.28
2019-05-23T01:07:07.975Z,98971.80
2019-05-23T01:09:13.417Z,98968.00
2019-05-23T01:11:17.291Z,98971.80
2019-05-23T01:13:23.327Z,98972.09
2019-05-23T01:15:28.795Z,98974.83
2019-05-23T01:17:35.999Z,98972.33
2019-05-23T01:19:40.694Z,98976.89
2019-05-23T01:21:59.355Z,98976.48
2019-05-23T01:24:11.635Z,98981.59
2019-05-23T01:26:15.527Z,98982.73
2019-05-23T01:28:19.457Z,98984.09
2019-05-23T01:30:27.907Z,98984.92
2019-05-23T01:32:38.945Z,98976.74
2019-05-23T01:34:43.433Z,98977.02
2019-05-23T01:36:48.298Z,98978.69
2019-05-23T01:38:52.789Z,98980.58
2019-05-23T01:40:59.445Z,98984.97
2019-05-23T01:43:07.451Z,98984.14
2019-05-23T01:45:12.191Z,98983.00
2019-05-23T01:47:16.925Z,98982.95
2019-05-23T01:49:20.939Z,98986.77
2019-05-23T01:51:25.017Z,98982.38
2019-05-23T01:53:29.754Z,98981.02
2019-05-23T01:55:33.724Z,98983.73
2019-05-23T01:57:39.043Z,98992.75
2019-05-23T01:59:42.930Z,98993.86
2019-05-23T02:01:46.949Z,98992.18
2019-05-23T02:03:51.058Z,98994.80
2019-05-23T02:05:55.486Z,98983.84
2019-05-23T02:08:00.041Z,98985.20
2019-05-23T02:10:04.324Z,98984.07
2019-05-23T02:12:11.085Z,98981.34
2019-05-23T02:14:15.276Z,98993.62
2019-05-23T02:16:19.467Z,98986.17
2019-05-23T02:18:24.158Z,98983.87
2019-05-23T02:20:28.705Z,98987.05
2019-05-23T02:22:33.219Z,98986.70
2019-05-23T02:24:38.028Z,98995.35
2019-05-23T02:26:41.961Z,98983.51
2019-05-23T02:28:46.294Z,98986.33
2019-05-23T02:30:50.492Z,98991.09
2019-05-23T02:32:56.398Z,98989.67
2019-05-23T02:35:00.220Z,98980.91
2019-05-23T02:37:05.800Z,98981.38
2019-05-23T02:39:21.585Z,98976.66
2019-05-23T02:41:49.497Z,98980.91
2019-05-23T02:43:58.706Z,98979.49
2019-05-23T02:46:07.492Z,98974.88
2019-05-23T02:48:12.231Z,98978.33
2019-05-23T02:50:26.241Z,98973.41
2019-05-23T02:52:38.841Z,98969.78
2019-05-23T02:54:42.865Z,98976.91
2019-05-23T02:56:47.663Z,98976.66
2019-05-23T02:59:33.506Z,98976.71
2019-05-23T03:02:03.322Z,98979.27
2019-05-23T03:04:12.568Z,98983.94
2019-05-23T03:06:19.396Z,98981.50
2019-05-23T03:08:24.374Z,98976.82
2019-05-23T03:10:32.753Z,98980.49
2019-05-23T03:12:38.575Z,98975.96
2019-05-23T03:14:45.622Z,98981.98
2019-05-23T03:16:52.065Z,98977.10
2019-05-23T03:19:01.779Z,98972.56
2019-05-23T03:21:06.231Z,98971.36
2019-05-23T03:23:13.780Z,98974.86
2019-05-23T03:25:49.144Z,98971.02
2019-05-23T03:27:53.993Z,98970.77
2019-05-23T03:30:00.631Z,98974.45
2019-05-23T03:32:21.941Z,98971.26
2019-05-23T03:34:28.757Z,98976.45
2019-05-23T03:36:33.384Z,98974.32
2019-05-23T03:38:37.943Z,98970.08
2019-05-23T03:40:42.285Z,98974.22
2019-05-23T03:42:46.358Z,98976.69
2019-05-23T03:44:51.300Z,98983.28
2019-05-23T03:46:57.100Z,98974.55
2019-05-23T03:49:01.988Z,98973.97
2019-05-23T03:51:09.326Z,98976.69
2019-05-23T03:53:13.545Z,98966.88
2019-05-23T03:55:18.626Z,98978.36
2019-05-23T03:57:25.800Z,98971.77
2019-05-23T03:59:31.327Z,98975.64
2019-05-23T04:01:47.583Z,98972.80
2019-05-23T04:03:44.755Z,98974.63
2019-05-23T04:05:49.060Z,98972.95
2019-05-23T04:07:53.816Z,98977.81
2019-05-23T04:09:58.228Z,98972.63
2019-05-23T04:12:02.296Z,98974.81
2019-05-23T04:14:07.154Z,98975.28
2019-05-23T04:16:11.291Z,98970.30
2019-05-23T04:18:15.306Z,98972.19
2019-05-23T04:20:19.149Z,98974.33
2019-05-23T04:22:23.646Z,98974.80
2019-05-23T04:24:27.397Z,98980.48
2019-05-23T04:26:31.540Z,98982.91
2019-05-23T04:28:35.328Z,98982.06
2019-05-23T04:30:39.125Z,98984.52
2019-05-23T04:32:43.284Z,98978.76
2019-05-23T04:34:47.292Z,98982.19
2019-05-23T04:36:51.534Z,98983.86
2019-05-23T04:38:55.429Z,98980.05
2019-05-23T04:41:00.764Z,98983.42
2019-05-23T04:43:04.782Z,98991.59
2019-05-23T04:45:09.452Z,98985.56
2019-05-23T04:47:14.011Z,98989.58
2019-05-23T04:49:17.827Z,98986.86
2019-05-23T04:51:23.777Z,98992.55
2019-05-23T04:53:28.891Z,98994.91
2019-05-23T04:55:34.181Z,98994.84
2019-05-23T04:57:38.308Z,98994.50
2019-05-23T04:59:42.292Z,98996.32
2019-05-23T05:01:46.974Z,98997.89
2019-05-23T05:03:51.963Z,99003.90
2019-05-23T05:05:55.993Z,99003.90
2019-05-23T05:07:59.850Z,98998.98
2019-05-23T05:10:04.101Z,99001.64
2019-05-23T05:12:09.913Z,99001.84
2019-05-23T05:14:14.154Z,99002.69
2019-05-23T05:16:18.809Z,99003.52
2019-05-23T05:18:24.268Z,99010.39
2019-05-23T05:20:28.601Z,99001.17
2019-05-23T05:22:32.854Z,99000.47
2019-05-23T05:24:40.131Z,99003.53
2019-05-23T05:26:42.345Z,99002.61
2019-05-23T05:28:46.714Z,99007.71
2019-05-23T05:30:50.838Z,99008.11
2019-05-23T05:32:54.875Z,99004.16
2019-05-23T05:34:58.666Z,99007.55
2019-05-23T05:37:02.685Z,99008.48
2019-05-23T05:39:07.841Z,99011.69
2019-05-23T05:41:11.545Z,99011.31
2019-05-23T05:43:15.995Z,99018.24
2019-05-23T05:45:20.228Z,99008.98
2019-05-23T05:47:24.327Z,99016.69
2019-05-23T05:49:28.681Z,99018.94
2019-05-23T05:51:32.596Z,99018.16
2019-05-23T05:53:36.701Z,99020.42
2019-05-23T05:55:40.544Z,99019.64
2019-05-23T05:57:44.339Z,99025.77
2019-05-23T05:59:48.246Z,99026.09
2019-05-23T06:01:52.898Z,99028.66
2019-05-23T06:03:56.997Z,99027.69
2019-05-23T06:06:31.909Z,99027.85
2019-05-23T06:08:38.170Z,99023.66
2019-05-23T06:10:43.168Z,99030.17
2019-05-23T06:12:48.119Z,99033.11
2019-05-23T06:14:51.949Z,99037.66
2019-05-23T06:16:56.585Z,99044.06
2019-05-23T06:19:00.553Z,99032.99
2019-05-23T06:21:04.898Z,99033.87
2019-05-23T06:23:11.851Z,99037.28
2019-05-23T06:25:16.053Z,99033.11
2019-05-23T06:27:22.059Z,99034.36
2019-05-23T06:29:25.829Z,99031.15
2019-05-23T06:31:31.395Z,99034.81
2019-05-23T06:33:35.470Z,99031.13
2019-05-23T06:35:39.465Z,99029.13
2019-05-23T06:37:43.312Z,99029.61
2019-05-23T06:39:47.355Z,99030.92
2019-05-23T06:41:53.264Z,99030.25
2019-05-23T06:43:57.030Z,99023.78
2019-05-23T06:46:01.396Z,99023.90
2019-05-23T06:48:05.901Z,99026.14
2019-05-23T06:50:13.418Z,99030.31
2019-05-23T06:52:17.265Z,99027.66
2019-05-23T06:54:21.049Z,99027.47
2019-05-23T06:56:25.331Z,99023.71
2019-05-23T06:58:29.998Z,99021.84
2019-05-23T07:00:33.995Z,99020.89
2019-05-23T07:02:40.022Z,99022.94
2019-05-23T21:36:39.691Z,98662.80
2019-05-23T23:57:13.995Z,98629.89
2019-05-23T23:59:17.068Z,98629.05
